createdAt,value
2022-07-29T00:00:35.192Z,0.00
2022-07-29T00:01:35.223Z,0.00
2022-07-29T00:02:35.213Z,0.00
2022-07-29T00:03:35.208Z,0.00
2022-07-29T00:04:35.379Z,0.00
2022-07-29T00:05:35.138Z,0.00
2022-07-29T00:06:35.147Z,0.00
2022-07-29T00:07:35.119Z,0.00
2022-07-29T00:08:35.107Z,0.00
2022-07-29T00:09:42.997Z,0.00
2022-07-29T00:10:36.129Z,0.00
2022-07-29T00:11:35.096Z,0.00
2022-07-29T00:12:35.077Z,0.00
2022-07-29T00:13:35.058Z,0.00
2022-07-29T00:14:35.045Z,0.00
2022-07-29T00:15:35.034Z,0.00
2022-07-29T00:16:35.131Z,0.00
2022-07-29T00:17:35.016Z,0.00
2022-07-29T00:18:35.007Z,0.00
2022-07-29T00:19:35.006Z,0.00
2022-07-29T00:20:34.986Z,0.00
2022-07-29T00:21:34.989Z,0.00
2022-07-29T00:22:34.977Z,0.00
2022-07-29T00:23:36.834Z,0.00
2022-07-29T00:24:34.947Z,0.00
2022-07-29T00:25:34.939Z,0.00
2022-07-29T00:26:34.946Z,0.00
2022-07-29T00:27:34.911Z,0.00
2022-07-29T00:28:34.934Z,0.00
2022-07-29T00:29:35.441Z,0.00
2022-07-29T00:30:34.884Z,0.00
2022-07-29T00:31:34.937Z,0.00
2022-07-29T00:32:34.867Z,0.00
2022-07-29T00:33:34.856Z,0.00
2022-07-29T00:34:34.847Z,0.00
2022-07-29T00:35:34.840Z,0.00
2022-07-29T00:36:34.839Z,0.00
2022-07-29T00:37:34.810Z,0.00
2022-07-29T00:38:34.804Z,0.00
2022-07-29T00:39:34.793Z,0.00
2022-07-29T00:40:34.801Z,0.00
2022-07-29T00:41:34.788Z,0.00
2022-07-29T00:42:34.764Z,0.00
2022-07-29T00:43:34.750Z,0.00
2022-07-29T00:44:34.743Z,0.00
2022-07-29T00:45:34.729Z,0.00
2022-07-29T00:46:34.803Z,0.00
2022-07-29T00:47:34.712Z,0.00
2022-07-29T00:48:34.703Z,0.00
2022-07-29T00:49:34.702Z,0.00
2022-07-29T00:50:34.699Z,0.00
2022-07-29T00:51:34.697Z,0.00
2022-07-29T00:52:34.659Z,0.00
2022-07-29T00:53:35.332Z,0.00
2022-07-29T00:54:34.642Z,0.00
2022-07-29T00:55:34.625Z,0.00
2022-07-29T00:56:34.635Z,0.00
2022-07-29T00:57:34.608Z,0.00
2022-07-29T00:58:34.601Z,0.00
2022-07-29T00:59:35.514Z,0.00
2022-07-29T01:00:34.612Z,0.00
2022-07-29T01:01:34.629Z,0.00
2022-07-29T01:02:34.596Z,0.00
2022-07-29T01:03:34.557Z,0.00
2022-07-29T01:04:34.559Z,0.00
2022-07-29T01:05:49.814Z,0.00
2022-07-29T01:06:35.529Z,0.00
2022-07-29T01:07:34.500Z,0.00
2022-07-29T01:08:34.495Z,0.00
2022-07-29T01:09:43.199Z,0.00
2022-07-29T01:10:35.475Z,0.00
2022-07-29T01:11:34.513Z,0.00
2022-07-29T01:12:34.470Z,0.00
2022-07-29T01:13:34.463Z,0.00
2022-07-29T01:14:34.435Z,0.00
2022-07-29T01:15:34.425Z,0.00
2022-07-29T01:16:34.479Z,0.00
2022-07-29T01:17:34.398Z,0.00
2022-07-29T01:18:34.393Z,0.00
2022-07-29T01:19:34.380Z,0.00
2022-07-29T01:20:34.369Z,0.00
2022-07-29T01:21:34.399Z,0.00
2022-07-29T01:22:34.365Z,0.00
2022-07-29T01:23:34.342Z,0.00
2022-07-29T01:24:34.333Z,0.00
2022-07-29T01:25:34.316Z,0.00
2022-07-29T01:26:34.326Z,0.00
2022-07-29T01:27:34.303Z,0.00
2022-07-29T01:28:34.287Z,0.00
2022-07-29T01:29:35.930Z,0.00
2022-07-29T01:30:34.265Z,0.00
2022-07-29T01:31:36.629Z,0.00
2022-07-29T01:32:35.263Z,0.00
2022-07-29T01:33:34.255Z,0.00
2022-07-29T01:34:34.220Z,0.00
2022-07-29T01:35:34.222Z,0.00
2022-07-29T01:36:34.224Z,0.00
2022-07-29T01:37:34.195Z,0.00
2022-07-29T01:38:34.181Z,0.00
2022-07-29T01:39:34.177Z,0.00
2022-07-29T01:40:34.160Z,0.00
2022-07-29T01:41:34.169Z,0.00
2022-07-29T01:42:34.140Z,0.00
2022-07-29T01:43:34.131Z,0.00
2022-07-29T01:44:34.121Z,0.00
2022-07-29T01:45:34.125Z,0.00
2022-07-29T01:46:34.200Z,0.00
2022-07-29T01:47:35.697Z,0.00
2022-07-29T01:48:34.099Z,0.00
2022-07-29T01:49:34.080Z,0.00
2022-07-29T01:50:34.060Z,0.00
2022-07-29T01:51:34.086Z,0.00
2022-07-29T01:52:34.035Z,0.00
2022-07-29T01:53:34.850Z,0.00
2022-07-29T01:54:34.013Z,0.00
2022-07-29T01:55:34.009Z,0.00
2022-07-29T01:56:34.014Z,0.00
2022-07-29T01:57:33.997Z,0.00
2022-07-29T01:58:33.988Z,0.00
2022-07-29T01:59:33.966Z,0.00
2022-07-29T02:00:33.958Z,0.00
2022-07-29T02:01:34.092Z,0.00
2022-07-29T02:02:33.944Z,0.00
2022-07-29T02:03:33.943Z,0.00
2022-07-29T02:04:33.978Z,0.00
2022-07-29T02:05:33.901Z,0.00
2022-07-29T02:06:33.896Z,0.00
2022-07-29T02:07:33.893Z,0.00
2022-07-29T02:08:33.866Z,0.00
2022-07-29T02:09:33.866Z,0.00
2022-07-29T02:10:33.844Z,0.00
2022-07-29T02:11:33.842Z,0.00
2022-07-29T02:12:33.844Z,0.00
2022-07-29T02:13:33.819Z,0.00
2022-07-29T02:14:33.805Z,0.00
2022-07-29T02:15:33.802Z,0.00
2022-07-29T02:16:33.883Z,0.00
2022-07-29T02:17:33.794Z,0.00
2022-07-29T02:18:33.761Z,0.00
2022-07-29T02:19:33.753Z,0.00
2022-07-29T02:20:33.766Z,0.00
2022-07-29T02:21:33.730Z,0.00
2022-07-29T02:22:33.751Z,0.00
2022-07-29T02:23:50.750Z,0.00
2022-07-29T02:24:34.699Z,0.00
2022-07-29T02:25:37.517Z,0.00
2022-07-29T02:26:33.689Z,0.00
2022-07-29T02:27:33.698Z,0.00
2022-07-29T02:28:33.658Z,0.00
2022-07-29T02:29:33.647Z,0.00
2022-07-29T02:30:33.634Z,0.00
2022-07-29T02:31:33.785Z,0.00
2022-07-29T02:32:33.630Z,0.00
2022-07-29T02:33:33.605Z,0.00
2022-07-29T02:34:33.606Z,0.00
2022-07-29T02:35:34.646Z,0.00
2022-07-29T02:36:33.571Z,0.00
2022-07-29T02:37:33.604Z,0.00
2022-07-29T02:38:33.551Z,0.00
2022-07-29T02:39:33.559Z,0.00
2022-07-29T02:40:33.530Z,0.00
2022-07-29T02:41:33.526Z,0.00
2022-07-29T02:42:33.902Z,0.00
2022-07-29T02:43:33.582Z,0.00
2022-07-29T02:44:34.868Z,0.00
2022-07-29T02:45:33.482Z,0.00
2022-07-29T02:46:33.513Z,0.00
2022-07-29T02:47:41.382Z,0.00
2022-07-29T02:48:34.447Z,0.00
2022-07-29T02:49:33.434Z,0.00
2022-07-29T02:50:33.425Z,0.00
2022-07-29T02:51:43.370Z,0.00
2022-07-29T02:52:34.415Z,0.00
2022-07-29T02:53:33.395Z,0.00
2022-07-29T02:54:33.384Z,0.00
2022-07-29T02:55:33.375Z,0.00
2022-07-29T02:56:33.362Z,0.00
2022-07-29T02:57:33.516Z,0.00
2022-07-29T02:58:33.341Z,0.00
2022-07-29T02:59:33.332Z,0.00
2022-07-29T03:00:33.321Z,0.00
2022-07-29T03:01:33.372Z,0.00
2022-07-29T03:02:33.317Z,0.00
2022-07-29T03:03:33.294Z,0.00
2022-07-29T03:04:33.361Z,0.00
2022-07-29T03:05:33.270Z,0.00
2022-07-29T03:06:38.444Z,0.00
2022-07-29T03:07:34.273Z,0.00
2022-07-29T03:08:33.239Z,0.00
2022-07-29T03:09:33.229Z,0.00
2022-07-29T03:10:33.222Z,0.00
2022-07-29T03:11:45.895Z,0.00
2022-07-29T03:12:34.211Z,0.00
2022-07-29T03:13:33.189Z,0.00
2022-07-29T03:14:33.178Z,0.00
2022-07-29T03:15:33.181Z,1.00
2022-07-29T03:16:35.026Z,1.00
2022-07-29T03:17:33.170Z,1.00
2022-07-29T03:18:33.132Z,1.00
2022-07-29T03:19:33.121Z,1.00
2022-07-29T03:20:33.111Z,0.00
2022-07-29T03:21:33.103Z,2.00
2022-07-29T03:22:33.130Z,2.00
2022-07-29T03:23:35.191Z,2.00
2022-07-29T03:24:33.070Z,4.00
2022-07-29T03:25:33.085Z,4.00
2022-07-29T03:26:33.047Z,4.00
2022-07-29T03:27:33.087Z,4.00
2022-07-29T03:28:33.255Z,2.00
2022-07-29T03:29:34.384Z,6.00
2022-07-29T03:30:33.010Z,5.00
2022-07-29T03:31:33.489Z,9.00
2022-07-29T03:32:33.038Z,15.00
2022-07-29T03:33:32.979Z,9.00
2022-07-29T03:34:32.969Z,11.00
2022-07-29T03:35:32.959Z,16.00
2022-07-29T03:36:32.955Z,22.00
2022-07-29T03:37:32.961Z,18.00
2022-07-29T03:38:32.941Z,25.00
2022-07-29T03:39:32.922Z,27.00
2022-07-29T03:40:32.904Z,23.00
2022-07-29T03:41:32.897Z,30.00
2022-07-29T03:42:34.426Z,35.00
2022-07-29T03:43:32.877Z,33.00
2022-07-29T03:44:32.862Z,40.00
2022-07-29T03:45:32.854Z,44.00
2022-07-29T03:46:32.883Z,55.00
2022-07-29T03:47:36.825Z,60.00
2022-07-29T03:48:33.826Z,65.00
2022-07-29T03:49:32.817Z,73.00
2022-07-29T03:50:32.800Z,84.00
2022-07-29T03:51:34.091Z,83.00
2022-07-29T03:52:32.797Z,96.00
2022-07-29T03:53:32.784Z,103.00
2022-07-29T03:54:32.764Z,116.00
2022-07-29T03:55:32.754Z,123.00
2022-07-29T03:56:32.744Z,130.00
2022-07-29T03:57:32.746Z,143.00
2022-07-29T03:58:32.724Z,150.00
2022-07-29T03:59:32.713Z,153.00
2022-07-29T04:00:32.699Z,166.00
2022-07-29T04:01:32.759Z,184.00
2022-07-29T04:02:32.747Z,191.00
2022-07-29T04:03:32.750Z,204.00
2022-07-29T04:04:32.658Z,207.00
2022-07-29T04:05:32.665Z,229.00
2022-07-29T04:06:32.647Z,232.00
2022-07-29T04:07:32.647Z,252.00
2022-07-29T04:08:32.621Z,265.00
2022-07-29T04:09:32.609Z,277.00
2022-07-29T04:10:34.159Z,286.00
2022-07-29T04:11:32.609Z,290.00
2022-07-29T04:12:32.575Z,306.00
2022-07-29T04:13:32.616Z,323.00
2022-07-29T04:14:32.558Z,323.00
2022-07-29T04:15:32.693Z,335.00
2022-07-29T04:16:32.612Z,344.00
2022-07-29T04:17:32.555Z,370.00
2022-07-29T04:18:32.530Z,379.00
2022-07-29T04:19:32.519Z,404.00
2022-07-29T04:20:32.494Z,412.00
2022-07-29T04:21:32.489Z,428.00
2022-07-29T04:22:32.475Z,443.00
2022-07-29T04:23:32.489Z,460.00
2022-07-29T04:24:32.463Z,466.00
2022-07-29T04:25:32.445Z,473.00
2022-07-29T04:26:32.433Z,493.00
2022-07-29T04:27:32.426Z,505.00
2022-07-29T04:28:32.435Z,529.00
2022-07-29T04:29:32.414Z,544.00
2022-07-29T04:30:32.394Z,553.00
2022-07-29T04:31:32.462Z,583.00
2022-07-29T04:32:32.373Z,600.00
2022-07-29T04:33:32.379Z,601.00
2022-07-29T04:34:32.355Z,628.00
2022-07-29T04:35:38.041Z,647.00
2022-07-29T04:36:33.334Z,677.00
2022-07-29T04:37:32.323Z,688.00
2022-07-29T04:38:32.326Z,708.00
2022-07-29T04:39:32.302Z,724.00
2022-07-29T04:40:32.296Z,744.00
2022-07-29T04:41:32.866Z,768.00
2022-07-29T04:42:32.267Z,768.00
2022-07-29T04:43:36.681Z,793.00
2022-07-29T04:44:32.250Z,796.00
2022-07-29T04:45:32.242Z,820.00
2022-07-29T04:46:32.256Z,840.00
2022-07-29T04:47:32.229Z,847.00
2022-07-29T04:48:32.235Z,858.00
2022-07-29T04:49:32.250Z,877.00
2022-07-29T04:50:32.194Z,888.00
2022-07-29T04:51:32.189Z,917.00
2022-07-29T04:52:32.188Z,917.00
2022-07-29T04:53:32.173Z,939.00
2022-07-29T04:54:32.146Z,960.00
2022-07-29T04:55:32.138Z,971.00
2022-07-29T04:56:32.129Z,997.00
2022-07-29T04:57:32.116Z,1013.00
2022-07-29T04:58:32.138Z,1034.00
2022-07-29T04:59:32.096Z,1054.00
2022-07-29T05:00:33.274Z,1063.00
2022-07-29T05:01:32.154Z,1074.00
2022-07-29T05:02:32.113Z,1082.00
2022-07-29T05:03:32.055Z,1083.00
2022-07-29T05:04:32.065Z,1100.00
2022-07-29T05:05:32.034Z,1119.00
2022-07-29T05:06:32.027Z,1127.00
2022-07-29T05:07:32.013Z,1142.00
2022-07-29T05:08:32.006Z,1140.00
2022-07-29T05:09:32.014Z,1167.00
2022-07-29T05:10:31.985Z,1180.00
2022-07-29T05:11:31.973Z,1203.00
2022-07-29T05:12:31.965Z,1211.00
2022-07-29T05:13:46.121Z,1234.00
2022-07-29T05:14:32.956Z,1243.00
2022-07-29T05:15:32.015Z,1262.00
2022-07-29T05:16:31.940Z,1287.00
2022-07-29T05:17:31.912Z,1305.00
2022-07-29T05:18:31.949Z,1334.00
2022-07-29T05:19:31.893Z,1341.00
2022-07-29T05:20:31.881Z,1347.00
2022-07-29T05:21:31.871Z,1333.00
2022-07-29T05:22:31.859Z,1352.00
2022-07-29T05:23:31.903Z,1374.00
2022-07-29T05:24:31.848Z,1387.00
2022-07-29T05:25:43.488Z,1395.00
2022-07-29T05:26:32.814Z,1401.00
2022-07-29T05:27:31.852Z,1419.00
2022-07-29T05:28:31.795Z,1434.00
2022-07-29T05:29:43.888Z,1424.00
2022-07-29T05:30:32.798Z,1436.00
2022-07-29T05:31:31.870Z,1460.00
2022-07-29T05:32:31.753Z,1485.00
2022-07-29T05:33:35.487Z,1510.00
2022-07-29T05:34:32.766Z,1530.00
2022-07-29T05:35:31.724Z,1558.00
2022-07-29T05:36:31.713Z,1579.00
2022-07-29T05:37:31.707Z,1609.00
2022-07-29T05:38:31.708Z,1622.00
2022-07-29T05:39:47.096Z,1627.00
2022-07-29T05:40:32.669Z,1660.00
2022-07-29T05:41:32.282Z,1677.00
2022-07-29T05:42:31.650Z,1683.00
2022-07-29T05:43:31.686Z,1700.00
2022-07-29T05:44:31.627Z,1726.00
2022-07-29T05:45:31.615Z,1742.00
2022-07-29T05:46:31.751Z,1766.00
2022-07-29T05:47:31.603Z,1794.00
2022-07-29T05:48:31.611Z,1811.00
2022-07-29T05:49:31.632Z,1832.00
2022-07-29T05:50:31.565Z,1832.00
2022-07-29T05:51:31.554Z,1841.00
2022-07-29T05:52:31.551Z,1871.00
2022-07-29T05:53:31.555Z,1867.00
2022-07-29T05:54:31.524Z,1872.00
2022-07-29T05:55:31.513Z,1888.00
2022-07-29T05:56:31.502Z,1905.00
2022-07-29T05:57:31.499Z,1922.00
2022-07-29T05:58:31.481Z,1928.00
2022-07-29T05:59:31.519Z,1885.00
2022-07-29T06:00:31.469Z,1879.00
2022-07-29T06:01:31.487Z,1857.00
2022-07-29T06:02:31.437Z,1831.00
2022-07-29T06:03:31.433Z,1825.00
2022-07-29T06:04:31.508Z,1817.00
2022-07-29T06:05:31.410Z,1794.00
2022-07-29T06:06:31.403Z,1792.00
2022-07-29T06:07:31.389Z,1799.00
2022-07-29T06:08:31.380Z,1795.00
2022-07-29T06:09:31.378Z,1804.00
2022-07-29T06:10:31.385Z,1833.00
2022-07-29T06:11:31.343Z,1845.00
2022-07-29T06:12:31.346Z,1862.00
2022-07-29T06:13:31.328Z,1894.00
2022-07-29T06:14:31.329Z,1887.00
2022-07-29T06:15:31.312Z,1930.00
2022-07-29T06:16:31.368Z,1929.00
2022-07-29T06:17:31.281Z,1982.00
2022-07-29T06:18:31.278Z,2010.00
2022-07-29T06:19:31.282Z,2027.00
2022-07-29T06:20:31.861Z,2076.00
2022-07-29T06:21:31.242Z,2072.00
2022-07-29T06:22:31.232Z,2106.00
2022-07-29T06:23:31.233Z,2126.00
2022-07-29T06:24:31.233Z,2107.00
2022-07-29T06:25:31.208Z,2072.00
2022-07-29T06:26:33.358Z,2086.00
2022-07-29T06:27:32.177Z,2085.00
2022-07-29T06:28:31.168Z,2041.00
2022-07-29T06:29:31.174Z,2074.00
2022-07-29T06:30:31.203Z,2037.00
2022-07-29T06:31:31.135Z,2049.00
2022-07-29T06:32:31.142Z,2049.00
2022-07-29T06:33:31.114Z,2078.00
2022-07-29T06:34:31.157Z,2103.00
2022-07-29T06:35:40.956Z,2115.00
2022-07-29T06:36:32.089Z,2117.00
2022-07-29T06:37:31.089Z,2104.00
2022-07-29T06:38:34.382Z,2082.00
2022-07-29T06:39:32.100Z,2053.00
2022-07-29T06:40:31.045Z,2050.00
2022-07-29T06:41:31.031Z,1981.00
2022-07-29T06:42:31.025Z,1994.00
2022-07-29T06:43:31.013Z,1988.00
2022-07-29T06:44:31.043Z,1966.00
2022-07-29T06:45:30.999Z,1955.00
2022-07-29T06:46:31.058Z,1918.00
2022-07-29T06:47:30.974Z,1924.00
2022-07-29T06:48:30.963Z,1931.00
2022-07-29T06:49:31.080Z,1936.00
2022-07-29T06:50:30.948Z,1931.00
2022-07-29T06:51:30.936Z,1940.00
2022-07-29T06:52:30.921Z,1926.00
2022-07-29T06:53:30.908Z,1939.00
2022-07-29T06:54:30.914Z,1927.00
2022-07-29T06:55:30.896Z,1953.00
2022-07-29T06:56:30.902Z,1941.00
2022-07-29T06:57:31.457Z,1966.00
2022-07-29T06:58:30.860Z,1974.00
2022-07-29T06:59:35.436Z,1966.00
2022-07-29T07:00:31.838Z,1977.00
2022-07-29T07:01:30.914Z,1989.00
2022-07-29T07:02:30.892Z,2019.00
2022-07-29T07:03:30.805Z,2011.00
2022-07-29T07:04:30.811Z,2032.00
2022-07-29T07:05:30.785Z,2057.00
2022-07-29T07:06:30.775Z,2054.00
2022-07-29T07:07:30.768Z,2042.00
2022-07-29T07:08:30.755Z,2024.00
2022-07-29T07:09:40.065Z,2029.00
2022-07-29T07:10:31.737Z,2023.00
2022-07-29T07:11:30.727Z,2015.00
2022-07-29T07:12:30.723Z,2009.00
2022-07-29T07:13:30.710Z,1991.00
2022-07-29T07:14:30.707Z,1987.00
2022-07-29T07:15:39.497Z,1977.00
2022-07-29T07:16:31.753Z,1969.00
2022-07-29T07:17:30.661Z,1953.00
2022-07-29T07:18:30.653Z,1975.00
2022-07-29T07:19:30.655Z,1981.00
2022-07-29T07:20:30.635Z,2004.00
2022-07-29T07:21:31.213Z,2024.00
2022-07-29T07:22:33.417Z,2052.00
2022-07-29T07:23:31.603Z,2098.00
2022-07-29T07:24:30.614Z,2106.00
2022-07-29T07:25:30.581Z,2148.00
2022-07-29T07:26:30.581Z,2173.00
2022-07-29T07:27:30.558Z,2195.00
2022-07-29T07:28:30.549Z,2191.00
2022-07-29T07:29:30.663Z,2184.00
2022-07-29T07:30:30.531Z,2145.00
2022-07-29T07:31:30.599Z,2162.00
2022-07-29T07:32:30.517Z,2187.00
2022-07-29T07:33:30.495Z,2267.00
2022-07-29T07:34:30.505Z,2242.00
2022-07-29T07:35:30.477Z,2238.00
2022-07-29T07:36:30.472Z,2279.00
2022-07-29T07:37:30.686Z,2284.00
2022-07-29T07:38:30.446Z,2312.00
2022-07-29T07:39:30.446Z,2348.00
2022-07-29T07:40:30.446Z,2333.00
2022-07-29T07:41:32.533Z,2365.00
2022-07-29T07:42:30.407Z,2391.00
2022-07-29T07:43:30.392Z,2418.00
2022-07-29T07:44:30.383Z,2436.00
2022-07-29T07:45:30.447Z,2459.00
2022-07-29T07:46:30.376Z,2483.00
2022-07-29T07:47:30.350Z,2520.00
2022-07-29T07:48:30.344Z,2507.00
2022-07-29T07:49:30.426Z,2554.00
2022-07-29T07:50:30.337Z,2616.00
2022-07-29T07:51:30.311Z,2666.00
2022-07-29T07:52:30.304Z,2709.00
2022-07-29T07:53:31.134Z,2725.00
2022-07-29T07:54:30.295Z,2739.00
2022-07-29T07:55:53.223Z,2779.00
2022-07-29T07:56:35.124Z,2787.00
2022-07-29T07:57:30.352Z,2853.00
2022-07-29T07:58:30.242Z,2857.00
2022-07-29T07:59:30.231Z,2846.00
2022-07-29T08:00:30.338Z,2905.00
2022-07-29T08:01:30.280Z,2985.00
2022-07-29T08:02:31.236Z,2998.00
2022-07-29T08:03:30.188Z,3015.00
2022-07-29T08:04:30.315Z,3034.00
2022-07-29T08:05:30.183Z,3097.00
2022-07-29T08:06:30.164Z,3104.00
2022-07-29T08:07:30.151Z,3114.00
2022-07-29T08:08:30.143Z,3120.00
2022-07-29T08:09:30.785Z,3113.00
2022-07-29T08:10:30.139Z,3100.00
2022-07-29T08:11:30.106Z,3116.00
2022-07-29T08:12:31.096Z,3136.00
2022-07-29T08:13:30.083Z,3131.00
2022-07-29T08:14:30.076Z,3121.00
2022-07-29T08:15:30.075Z,3149.00
2022-07-29T08:16:30.113Z,3188.00
2022-07-29T08:17:30.041Z,3217.00
2022-07-29T08:18:31.048Z,3226.00
2022-07-29T08:19:30.042Z,3237.00
2022-07-29T08:20:30.044Z,3236.00
2022-07-29T08:21:30.005Z,3285.00
2022-07-29T08:22:30.106Z,3276.00
2022-07-29T08:23:46.439Z,3188.00
2022-07-29T08:24:30.969Z,3292.00
2022-07-29T08:25:29.970Z,3262.00
2022-07-29T08:26:29.949Z,3232.00
2022-07-29T08:27:44.759Z,3154.00
2022-07-29T08:28:30.925Z,3157.00
2022-07-29T08:29:29.916Z,3124.00
2022-07-29T08:30:29.937Z,3054.00
2022-07-29T08:31:29.968Z,3036.00
2022-07-29T08:32:52.598Z,3039.00
2022-07-29T08:33:30.878Z,3050.00
2022-07-29T08:34:29.867Z,3117.00
2022-07-29T08:35:34.779Z,3169.00
2022-07-29T08:36:30.863Z,3198.00
2022-07-29T08:37:29.834Z,3197.00
2022-07-29T08:38:29.830Z,3229.00
2022-07-29T08:39:29.818Z,3218.00
2022-07-29T08:40:31.884Z,3232.00
2022-07-29T08:41:29.809Z,3276.00
2022-07-29T08:42:29.787Z,3296.00
2022-07-29T08:43:29.770Z,3210.00
2022-07-29T08:44:30.794Z,3181.00
2022-07-29T08:45:29.877Z,3161.00
2022-07-29T08:46:29.750Z,3114.00
2022-07-29T08:47:29.734Z,3062.00
2022-07-29T08:48:29.756Z,3027.00
2022-07-29T08:49:29.714Z,2986.00
2022-07-29T08:50:29.715Z,2872.00
2022-07-29T08:51:29.691Z,2791.00
2022-07-29T08:52:29.682Z,2746.00
2022-07-29T08:53:29.672Z,2700.00
2022-07-29T08:54:29.662Z,2766.00
2022-07-29T08:55:29.665Z,2739.00
2022-07-29T08:56:29.639Z,2725.00
2022-07-29T08:57:29.633Z,2706.00
2022-07-29T08:58:29.620Z,2667.00
2022-07-29T08:59:29.624Z,2683.00
2022-07-29T09:00:29.615Z,2689.00
2022-07-29T09:01:35.788Z,2708.00
2022-07-29T09:02:30.581Z,2680.00
2022-07-29T09:03:29.628Z,2702.00
2022-07-29T09:04:29.560Z,2709.00
2022-07-29T09:05:29.547Z,2722.00
2022-07-29T09:06:34.091Z,2728.00
2022-07-29T09:07:32.989Z,2689.00
2022-07-29T09:08:30.516Z,2682.00
2022-07-29T09:09:29.524Z,2611.00
2022-07-29T09:10:29.499Z,2625.00
2022-07-29T09:11:29.513Z,2658.00
2022-07-29T09:12:31.089Z,2647.00
2022-07-29T09:13:29.469Z,2591.00
2022-07-29T09:14:29.457Z,2612.00
2022-07-29T09:15:29.568Z,2599.00
2022-07-29T09:16:51.221Z,2679.00
2022-07-29T09:17:30.467Z,2698.00
2022-07-29T09:18:31.176Z,2703.00
2022-07-29T09:19:29.404Z,2727.00
2022-07-29T09:20:29.396Z,2730.00
2022-07-29T09:21:29.434Z,2742.00
2022-07-29T09:22:29.379Z,2752.00
2022-07-29T09:23:29.379Z,2749.00
2022-07-29T09:24:29.359Z,2748.00
2022-07-29T09:25:29.357Z,2762.00
2022-07-29T09:26:29.342Z,2743.00
2022-07-29T09:27:29.325Z,2742.00
2022-07-29T09:28:29.323Z,2757.00
2022-07-29T09:29:32.144Z,2687.00
2022-07-29T09:30:31.815Z,2755.00
2022-07-29T09:31:29.372Z,2783.00
2022-07-29T09:32:29.280Z,2849.00
2022-07-29T09:33:29.262Z,2907.00
2022-07-29T09:34:29.266Z,2944.00
2022-07-29T09:35:29.278Z,2991.00
2022-07-29T09:36:29.254Z,3066.00
2022-07-29T09:37:29.224Z,3060.00
2022-07-29T09:38:29.214Z,3101.00
2022-07-29T09:39:29.202Z,3047.00
2022-07-29T09:40:29.195Z,3054.00
2022-07-29T09:41:29.195Z,3023.00
2022-07-29T09:42:29.193Z,3011.00
2022-07-29T09:43:29.160Z,3030.00
2022-07-29T09:44:29.154Z,3000.00
2022-07-29T09:45:29.143Z,3044.00
2022-07-29T09:46:29.223Z,3091.00
2022-07-29T09:47:29.146Z,3117.00
2022-07-29T09:48:29.113Z,3123.00
2022-07-29T09:49:29.276Z,3170.00
2022-07-29T09:50:29.094Z,3238.00
2022-07-29T09:51:38.064Z,3180.00
2022-07-29T09:52:30.075Z,3233.00
2022-07-29T09:53:29.063Z,3240.00
2022-07-29T09:54:29.053Z,3231.00
2022-07-29T09:55:29.051Z,3214.00
2022-07-29T09:56:29.060Z,3252.00
2022-07-29T09:57:31.049Z,3297.00
2022-07-29T09:58:29.010Z,3323.00
2022-07-29T09:59:29.005Z,3437.00
2022-07-29T10:00:29.056Z,3508.00
2022-07-29T10:01:29.071Z,3473.00
2022-07-29T10:02:28.970Z,3448.00
2022-07-29T10:03:29.058Z,3482.00
2022-07-29T10:04:28.953Z,3619.00
2022-07-29T10:05:36.180Z,3663.00
2022-07-29T10:06:29.945Z,3658.00
2022-07-29T10:07:28.920Z,3628.00
2022-07-29T10:08:28.909Z,3696.00
2022-07-29T10:09:28.908Z,3579.00
2022-07-29T10:10:28.897Z,3763.00
2022-07-29T10:11:37.797Z,3775.00
2022-07-29T10:12:29.910Z,3775.00
2022-07-29T10:13:28.864Z,3859.00
2022-07-29T10:14:28.843Z,3856.00
2022-07-29T10:15:28.834Z,3938.00
2022-07-29T10:16:28.961Z,3779.00
2022-07-29T10:17:28.818Z,3840.00
2022-07-29T10:18:28.813Z,3936.00
2022-07-29T10:19:28.813Z,4025.00
2022-07-29T10:20:28.781Z,4133.00
2022-07-29T10:21:35.189Z,4101.00
2022-07-29T10:22:52.097Z,4060.00
2022-07-29T10:23:29.766Z,3956.00
2022-07-29T10:24:29.752Z,3999.00
2022-07-29T10:25:28.735Z,4005.00
2022-07-29T10:26:28.735Z,3935.00
2022-07-29T10:27:28.717Z,3948.00
2022-07-29T10:28:28.718Z,3889.00
2022-07-29T10:29:28.693Z,3872.00
2022-07-29T10:30:28.679Z,3866.00
2022-07-29T10:31:28.709Z,4007.00
2022-07-29T10:32:28.684Z,4058.00
2022-07-29T10:33:28.664Z,4133.00
2022-07-29T10:34:28.639Z,4224.00
2022-07-29T10:35:28.632Z,4203.00
2022-07-29T10:36:28.617Z,4196.00
2022-07-29T10:37:28.623Z,4180.00
2022-07-29T10:38:29.597Z,4183.00
2022-07-29T10:39:41.841Z,4104.00
2022-07-29T10:40:29.602Z,4098.00
2022-07-29T10:41:29.027Z,4084.00
2022-07-29T10:42:33.949Z,4134.00
2022-07-29T10:43:29.948Z,4158.00
2022-07-29T10:44:28.555Z,4116.00
2022-07-29T10:45:28.533Z,4111.00
2022-07-29T10:46:28.562Z,4245.00
2022-07-29T10:47:28.526Z,4311.00
2022-07-29T10:48:28.497Z,4354.00
2022-07-29T10:49:30.706Z,4561.00
2022-07-29T10:50:28.475Z,4692.00
2022-07-29T10:51:28.465Z,4775.00
2022-07-29T10:52:30.249Z,4751.00
2022-07-29T10:53:33.917Z,4845.00
2022-07-29T10:54:29.433Z,4904.00
2022-07-29T10:55:28.439Z,4944.00
2022-07-29T10:56:28.431Z,4945.00
2022-07-29T10:57:53.324Z,4974.00
2022-07-29T10:58:29.391Z,4989.00
2022-07-29T10:59:36.114Z,5005.00
2022-07-29T11:00:29.384Z,4987.00
2022-07-29T11:01:37.690Z,4975.00
2022-07-29T11:02:42.150Z,4944.00
2022-07-29T11:03:29.371Z,4909.00
2022-07-29T11:04:28.339Z,4846.00
2022-07-29T11:05:31.911Z,4778.00
2022-07-29T11:06:29.338Z,4679.00
2022-07-29T11:07:42.609Z,4713.00
2022-07-29T11:08:29.294Z,4801.00
2022-07-29T11:09:37.570Z,4792.00
2022-07-29T11:10:31.332Z,4806.00
2022-07-29T11:11:29.659Z,4820.00
2022-07-29T11:12:28.266Z,4876.00
2022-07-29T11:13:28.241Z,4899.00
2022-07-29T11:14:29.255Z,4942.00
2022-07-29T11:15:28.632Z,5050.00
2022-07-29T11:16:29.022Z,5032.00
2022-07-29T11:17:28.251Z,5066.00
2022-07-29T11:18:29.198Z,5107.00
2022-07-29T11:19:30.413Z,5194.00
2022-07-29T11:20:28.169Z,5091.00
2022-07-29T11:21:28.163Z,5112.00
2022-07-29T11:22:29.202Z,5127.00
2022-07-29T11:23:28.138Z,5212.00
2022-07-29T11:24:29.525Z,5311.00
2022-07-29T11:26:29.105Z,5448.00
2022-07-29T11:27:28.536Z,5446.00
2022-07-29T11:28:28.101Z,5420.00
2022-07-29T11:29:28.078Z,5360.00
2022-07-29T11:30:28.076Z,5387.00
2022-07-29T11:31:28.076Z,5416.00
2022-07-29T11:33:54.043Z,5357.00
2022-07-29T11:34:29.641Z,5335.00
2022-07-29T11:35:37.976Z,5269.00
2022-07-29T11:36:29.018Z,5309.00
2022-07-29T11:37:28.943Z,5238.00
2022-07-29T11:38:28.822Z,4834.00
2022-07-29T11:39:36.795Z,4592.00
2022-07-29T11:40:28.976Z,4497.00
2022-07-29T11:41:28.099Z,4488.00
2022-07-29T11:42:32.094Z,4531.00
2022-07-29T11:43:28.953Z,4374.00
2022-07-29T11:44:27.969Z,4372.00
2022-07-29T11:45:42.847Z,4367.00
2022-07-29T11:46:28.918Z,4254.00
2022-07-29T11:47:27.961Z,4251.00
2022-07-29T11:48:32.387Z,4230.00
2022-07-29T11:49:32.353Z,4174.00
2022-07-29T11:50:27.884Z,4161.00
2022-07-29T11:51:32.855Z,4182.00
2022-07-29T11:52:28.852Z,4236.00
2022-07-29T11:53:28.959Z,4275.00
2022-07-29T11:54:28.835Z,4308.00
2022-07-29T11:55:32.505Z,4586.00
2022-07-29T11:56:28.827Z,4578.00
2022-07-29T11:57:36.416Z,4718.00
2022-07-29T11:58:28.790Z,4601.00
2022-07-29T11:59:33.563Z,4723.00
2022-07-29T12:00:28.777Z,5733.00
2022-07-29T12:01:27.775Z,4991.00
2022-07-29T12:02:36.645Z,4840.00
2022-07-29T12:03:34.949Z,4850.00
2022-07-29T12:04:28.727Z,4902.00
2022-07-29T12:06:28.707Z,6313.00
2022-07-29T12:07:03.437Z,5336.00
2022-07-29T12:07:03.639Z,5172.00
2022-07-29T12:07:35.049Z,5573.00
2022-07-29T12:08:28.700Z,5092.00
2022-07-29T12:09:27.694Z,5755.00
2022-07-29T12:10:30.468Z,6256.00
2022-07-29T12:11:27.664Z,6357.00
2022-07-29T12:12:27.651Z,5493.00
2022-07-29T12:13:37.515Z,5519.00
2022-07-29T12:14:28.655Z,5722.00
2022-07-29T12:15:46.107Z,6942.00
2022-07-29T12:16:29.681Z,6077.00
2022-07-29T12:17:30.623Z,6206.00
2022-07-29T12:18:27.637Z,6076.00
2022-07-29T12:19:27.603Z,7645.00
2022-07-29T12:20:27.577Z,8032.00
2022-07-29T12:21:28.719Z,7933.00
2022-07-29T12:22:27.550Z,7161.00
2022-07-29T12:23:29.458Z,6814.00
2022-07-29T12:24:28.541Z,7602.00
2022-07-29T12:25:34.860Z,7339.00
2022-07-29T12:26:28.550Z,7361.00
2022-07-29T12:27:29.432Z,5759.00
2022-07-29T12:28:28.170Z,6491.00
2022-07-29T12:29:33.692Z,6508.00